createdAt,value
2024-05-09T00:02:01.779Z,3.05
2024-05-09T00:04:51.165Z,2.70
2024-05-09T00:07:40.893Z,3.03
2024-05-09T00:10:36.050Z,2.90
2024-05-09T00:13:28.061Z,2.67
2024-05-09T00:16:19.949Z,2.90
2024-05-09T00:19:09.710Z,2.72
2024-05-09T00:21:59.081Z,3.15
2024-05-09T00:24:48.193Z,3.20
2024-05-09T00:27:37.654Z,2.78
2024-05-09T00:30:33.588Z,3.40
2024-05-09T00:33:28.569Z,2.70
2024-05-09T00:36:18.138Z,3.03
2024-05-09T00:39:07.425Z,2.92
2024-05-09T00:41:56.830Z,2.97
2024-05-09T00:44:46.135Z,3.28
2024-05-09T00:47:35.642Z,3.28
2024-05-09T00:50:35.561Z,3.33
2024-05-09T00:53:27.428Z,3.27
2024-05-09T00:56:17.129Z,3.30
2024-05-09T00:59:06.951Z,3.10
2024-05-09T01:01:56.483Z,3.42
2024-05-09T01:04:45.927Z,3.20
2024-05-09T01:07:38.290Z,3.22
2024-05-09T01:10:33.805Z,3.40
2024-05-09T01:13:24.563Z,3.60
2024-05-09T01:16:13.870Z,3.60
2024-05-09T01:19:03.381Z,3.50
2024-05-09T01:21:53.018Z,3.50
2024-05-09T01:24:44.735Z,3.50
2024-05-09T01:27:34.760Z,4.43
2024-05-09T01:30:31.715Z,3.97
2024-05-09T01:33:24.505Z,4.13
2024-05-09T01:36:14.390Z,3.30
2024-05-09T01:39:04.105Z,3.63
2024-05-09T01:41:55.819Z,3.77
2024-05-09T01:44:46.851Z,3.67
2024-05-09T01:47:36.436Z,3.80
2024-05-09T01:50:37.065Z,3.60
2024-05-09T01:53:30.340Z,3.50
2024-05-09T01:56:19.964Z,4.07
2024-05-09T01:59:12.880Z,3.40
2024-05-09T02:02:02.632Z,3.70
2024-05-09T02:04:52.295Z,3.57
2024-05-09T02:07:41.695Z,3.43
2024-05-09T02:10:32.970Z,3.80
2024-05-09T02:13:22.830Z,3.93
2024-05-09T02:16:15.660Z,3.87
2024-05-09T02:19:05.559Z,4.00
2024-05-09T02:21:54.977Z,3.80
2024-05-09T02:24:44.253Z,3.90
2024-05-09T02:27:33.418Z,3.80
2024-05-09T02:30:30.567Z,3.70
2024-05-09T02:33:31.086Z,3.70
2024-05-09T02:36:20.640Z,4.10
2024-05-09T02:39:07.597Z,4.00
2024-05-09T02:41:56.670Z,4.10
2024-05-09T02:44:43.234Z,3.70
2024-05-09T02:47:32.600Z,3.77
2024-05-09T02:50:29.923Z,3.80
2024-05-09T02:53:26.286Z,4.70
2024-05-09T02:56:12.965Z,4.33
2024-05-09T02:59:02.818Z,3.93
2024-05-09T03:01:50.218Z,3.70
2024-05-09T03:04:40.053Z,3.93
2024-05-09T03:07:29.596Z,3.77
2024-05-09T03:10:25.389Z,3.93
2024-05-09T03:13:17.854Z,3.90
2024-05-09T03:16:04.582Z,4.00
2024-05-09T03:18:54.742Z,3.87
2024-05-09T03:21:41.830Z,3.20
2024-05-09T03:24:33.652Z,4.13
2024-05-09T03:27:20.554Z,3.90
2024-05-09T03:30:15.330Z,4.53
2024-05-09T03:33:10.565Z,3.73
2024-05-09T03:36:00.187Z,4.30
2024-05-09T03:38:50.379Z,4.07
2024-05-09T03:41:42.557Z,4.47
2024-05-09T03:44:31.803Z,4.97
2024-05-09T03:47:21.550Z,4.17
2024-05-09T03:50:15.152Z,4.27
2024-05-09T03:53:07.824Z,4.27
2024-05-09T03:55:54.615Z,4.63
2024-05-09T03:58:46.710Z,4.47
2024-05-09T04:01:33.579Z,4.50
2024-05-09T04:04:23.112Z,4.53
2024-05-09T04:07:09.600Z,4.50
2024-05-09T04:09:58.796Z,4.20
2024-05-09T04:12:48.002Z,4.40
2024-05-09T04:15:37.099Z,4.20
2024-05-09T04:18:26.595Z,4.57
2024-05-09T04:21:13.560Z,4.57
2024-05-09T04:24:02.908Z,4.30
2024-05-09T04:26:49.685Z,4.47
2024-05-09T04:29:38.958Z,4.27
2024-05-09T04:32:28.501Z,4.60
2024-05-09T04:35:18.687Z,4.40
2024-05-09T04:38:06.243Z,4.23
2024-05-09T04:40:55.696Z,4.20
2024-05-09T04:43:42.786Z,4.90
2024-05-09T04:46:31.914Z,4.70
2024-05-09T04:49:21.170Z,4.47
2024-05-09T04:52:10.515Z,4.53
2024-05-09T04:54:58.938Z,4.73
2024-05-09T04:57:48.497Z,4.60
2024-05-09T05:00:37.695Z,4.10
2024-05-09T05:03:28.832Z,4.20
2024-05-09T05:06:18.317Z,4.50
2024-05-09T05:09:07.860Z,4.90
2024-05-09T05:11:54.603Z,4.43
2024-05-09T05:14:43.976Z,4.80
2024-05-09T05:17:31.881Z,4.80
2024-05-09T05:20:27.796Z,4.47
2024-05-09T05:23:25.733Z,4.70
2024-05-09T05:26:14.227Z,4.13
2024-05-09T05:29:03.944Z,4.13
2024-05-09T05:31:50.930Z,4.43
2024-05-09T05:34:40.512Z,4.40
2024-05-09T05:37:27.143Z,4.38
2024-05-09T05:40:28.129Z,3.90
2024-05-09T05:43:24.560Z,4.00
2024-05-09T05:46:11.278Z,3.88
2024-05-09T05:49:00.515Z,4.40
2024-05-09T05:51:47.330Z,4.07
2024-05-09T05:54:36.845Z,4.40
2024-05-09T05:57:26.476Z,3.95
2024-05-09T06:00:25.981Z,3.75
2024-05-09T06:03:19.795Z,3.97
2024-05-09T06:06:06.446Z,3.90
2024-05-09T06:08:55.818Z,4.00
2024-05-09T06:11:43.149Z,4.13
2024-05-09T06:14:35.352Z,4.38
2024-05-09T06:17:22.308Z,4.22
2024-05-09T06:20:20.238Z,4.00
2024-05-09T06:23:11.508Z,4.18
2024-05-09T06:26:01.174Z,4.18
2024-05-09T06:28:47.736Z,4.28
2024-05-09T06:31:42.421Z,4.35
2024-05-09T06:34:29.877Z,4.47
2024-05-09T06:37:19.043Z,3.80
2024-05-09T06:40:07.584Z,4.25
2024-05-09T06:42:59.194Z,3.95
2024-05-09T06:45:46.953Z,4.05
2024-05-09T06:48:39.166Z,3.80
2024-05-09T06:51:26.131Z,4.03
2024-05-09T06:54:15.438Z,3.53
2024-05-09T06:57:04.620Z,3.85
2024-05-09T06:59:51.096Z,3.53
2024-05-09T07:02:40.400Z,3.35
2024-05-09T07:05:30.120Z,2.97
2024-05-09T07:08:19.718Z,3.30
2024-05-09T07:11:06.865Z,3.30
2024-05-09T07:13:56.586Z,3.10
2024-05-09T07:16:43.544Z,3.38
2024-05-09T07:19:32.900Z,3.17
2024-05-09T07:22:23.012Z,3.20
2024-05-09T07:25:12.534Z,3.72
2024-05-09T07:27:59.034Z,3.10
2024-05-09T07:30:48.383Z,3.90
2024-05-09T07:33:37.805Z,2.95
2024-05-09T07:36:24.827Z,3.20
2024-05-09T07:39:16.844Z,2.90
2024-05-09T07:42:03.911Z,3.53
2024-05-09T07:44:53.360Z,3.50
2024-05-09T07:49:11.926Z,3.30
2024-05-09T07:53:45.489Z,2.95
2024-05-09T07:56:41.042Z,2.83
2024-05-09T07:59:28.205Z,2.90
2024-05-09T08:02:17.434Z,2.90
2024-05-09T08:05:04.538Z,2.70
2024-05-09T08:07:53.992Z,3.00
2024-05-09T08:10:40.769Z,2.88
2024-05-09T08:13:32.876Z,2.90
2024-05-09T08:16:19.998Z,2.78
2024-05-09T08:19:11.084Z,2.78
2024-05-09T08:21:58.267Z,2.80
2024-05-09T08:24:48.376Z,3.10
2024-05-09T08:27:35.084Z,2.60
2024-05-09T08:30:33.465Z,2.65
2024-05-09T08:33:26.297Z,2.30
2024-05-09T08:36:13.923Z,2.92
2024-05-09T08:39:03.392Z,2.50
2024-05-09T08:41:51.232Z,2.95
2024-05-09T08:44:40.943Z,2.67
2024-05-09T08:47:32.059Z,2.30
2024-05-09T08:50:31.572Z,2.67
2024-05-09T08:53:24.440Z,2.50
2024-05-09T08:56:14.826Z,2.40
2024-05-09T08:59:01.928Z,2.40
2024-05-09T09:01:52.044Z,2.33
2024-05-09T09:04:41.691Z,2.20
2024-05-09T09:07:31.905Z,2.47
2024-05-09T09:10:29.195Z,2.30
2024-05-09T09:13:18.272Z,2.53
2024-05-09T09:16:08.387Z,2.22
2024-05-09T09:18:57.732Z,2.30
2024-05-09T09:21:49.999Z,2.15
2024-05-09T09:24:37.072Z,2.33
2024-05-09T09:27:26.726Z,2.10
2024-05-09T09:30:26.865Z,1.92
2024-05-09T09:33:23.005Z,2.58
2024-05-09T09:36:13.625Z,2.25
2024-05-09T09:39:06.096Z,2.13
2024-05-09T09:41:53.359Z,2.10
2024-05-09T09:44:47.742Z,2.17
2024-05-09T09:47:39.951Z,2.35
2024-05-09T09:50:34.390Z,2.47
2024-05-09T09:53:24.829Z,2.58
2024-05-09T09:56:18.624Z,2.40
2024-05-09T09:59:05.147Z,2.00
2024-05-09T10:01:55.240Z,2.33
2024-05-09T10:04:42.375Z,2.40
2024-05-09T10:07:32.067Z,2.53
2024-05-09T10:10:29.956Z,2.15
2024-05-09T10:13:24.607Z,2.00
2024-05-09T10:16:12.374Z,2.13
2024-05-09T10:19:01.981Z,2.47
2024-05-09T10:21:49.002Z,2.20
2024-05-09T10:24:51.710Z,2.22
2024-05-09T10:27:43.730Z,2.55
2024-05-09T10:30:36.206Z,2.60
2024-05-09T10:33:26.072Z,2.20
2024-05-09T10:36:13.617Z,2.55
2024-05-09T10:39:02.987Z,2.50
2024-05-09T10:41:50.103Z,2.22
2024-05-09T10:44:41.041Z,2.30
2024-05-09T10:47:30.671Z,2.30
2024-05-09T10:50:25.789Z,2.40
2024-05-09T10:53:19.257Z,2.53
2024-05-09T10:56:09.043Z,2.50
2024-05-09T10:58:58.542Z,2.40
2024-05-09T11:01:45.514Z,2.50
2024-05-09T11:04:38.022Z,2.33
2024-05-09T11:07:27.503Z,14.80
2024-05-09T11:10:17.819Z,2.72
2024-05-09T11:13:07.748Z,2.42
2024-05-09T11:15:54.407Z,2.72
2024-05-09T11:18:46.847Z,2.63
2024-05-09T11:21:36.818Z,2.20
2024-05-09T11:24:28.834Z,2.40
2024-05-09T11:27:15.680Z,2.20
2024-05-09T11:30:07.203Z,2.35
2024-05-09T11:32:55.795Z,2.05
2024-05-09T11:35:45.615Z,1.77
2024-05-09T11:38:35.041Z,2.20
2024-05-09T11:41:24.428Z,2.50
2024-05-09T11:44:11.111Z,2.20
2024-05-09T11:47:00.519Z,2.05
2024-05-09T11:49:50.053Z,2.22
2024-05-09T11:52:37.101Z,2.25
2024-05-09T11:55:29.231Z,2.50
2024-05-09T11:58:17.821Z,2.10
2024-05-09T12:01:08.084Z,2.28
2024-05-09T12:03:55.058Z,2.53
2024-05-09T12:06:46.251Z,2.35
2024-05-09T12:09:34.346Z,2.30
2024-05-09T12:12:27.824Z,2.70
2024-05-09T12:15:14.859Z,1.90
2024-05-09T12:18:04.644Z,2.10
2024-05-09T12:20:51.625Z,1.90
2024-05-09T12:23:40.817Z,2.35
2024-05-09T12:26:28.430Z,1.95
2024-05-09T12:29:20.307Z,2.47
2024-05-09T12:32:10.202Z,2.40
2024-05-09T12:34:56.997Z,2.40
2024-05-09T12:37:46.189Z,2.30
2024-05-09T12:40:36.898Z,2.03
2024-05-09T12:43:28.401Z,2.30
2024-05-09T12:46:21.317Z,9.70
2024-05-09T12:49:11.219Z,2.70
2024-05-09T12:51:58.787Z,2.40
2024-05-09T12:54:48.387Z,2.33
2024-05-09T12:57:34.970Z,12.90
2024-05-09T13:00:31.409Z,2.60
2024-05-09T13:03:23.079Z,2.58
2024-05-09T13:06:12.280Z,2.33
2024-05-09T13:08:59.104Z,2.20
2024-05-09T13:11:48.272Z,2.33
2024-05-09T13:14:35.338Z,2.17
2024-05-09T13:17:24.549Z,2.35
2024-05-09T13:20:22.850Z,2.38
2024-05-09T13:23:18.628Z,2.60
2024-05-09T13:26:05.503Z,2.30
2024-05-09T13:28:54.640Z,2.20
2024-05-09T13:31:41.558Z,2.80
2024-05-09T13:34:31.192Z,2.53
2024-05-09T13:37:20.319Z,2.58
2024-05-09T13:40:14.138Z,2.53
2024-05-09T13:43:01.989Z,2.75
2024-05-09T13:45:52.005Z,2.47
2024-05-09T13:48:39.324Z,2.40
2024-05-09T13:51:28.524Z,2.33
2024-05-09T13:54:22.614Z,2.15
2024-05-09T13:57:09.717Z,2.50
2024-05-09T13:59:59.267Z,2.35
2024-05-09T14:02:48.577Z,2.20
2024-05-09T14:05:35.898Z,2.08
2024-05-09T14:08:25.554Z,2.50
2024-05-09T14:11:17.368Z,2.15
2024-05-09T14:14:03.945Z,2.20
2024-05-09T14:16:53.661Z,2.53
2024-05-09T14:19:40.845Z,2.13
2024-05-09T14:22:30.195Z,2.30
2024-05-09T14:25:17.570Z,2.25
2024-05-09T14:28:10.186Z,2.20
2024-05-09T14:30:57.233Z,2.40
2024-05-09T14:33:46.653Z,2.30
2024-05-09T14:36:33.480Z,2.15
2024-05-09T14:39:22.901Z,2.00
2024-05-09T14:42:09.753Z,2.60
2024-05-09T14:45:02.112Z,2.30
2024-05-09T14:47:49.799Z,2.40
2024-05-09T14:50:40.734Z,2.00
2024-05-09T14:53:30.444Z,2.33
2024-05-09T14:56:16.930Z,2.30
2024-05-09T14:59:09.254Z,2.00
2024-05-09T15:01:58.802Z,2.10
2024-05-09T15:04:48.104Z,2.30
2024-05-09T15:07:35.275Z,2.20
2024-05-09T15:10:33.671Z,2.42
2024-05-09T15:13:22.517Z,2.30
2024-05-09T15:16:12.311Z,2.22
2024-05-09T15:19:01.704Z,2.17
2024-05-09T15:21:51.124Z,2.15
2024-05-09T15:24:39.351Z,2.70
2024-05-09T15:27:30.011Z,2.28
2024-05-09T15:30:20.832Z,2.78
2024-05-09T15:33:13.857Z,2.35
2024-05-09T15:36:03.536Z,2.50
2024-05-09T15:38:53.151Z,2.58
2024-05-09T15:41:39.981Z,2.40
2024-05-09T15:44:29.277Z,2.50
2024-05-09T15:47:16.086Z,2.42
2024-05-09T15:50:09.818Z,2.28
2024-05-09T15:53:04.379Z,2.30
2024-05-09T15:55:53.736Z,2.38
2024-05-09T15:58:41.658Z,2.05
2024-05-09T16:01:31.375Z,2.13
2024-05-09T16:04:20.944Z,2.13
2024-05-09T16:07:07.825Z,2.20
2024-05-09T16:10:00.235Z,2.35
2024-05-09T16:12:46.998Z,2.67
2024-05-09T16:15:36.699Z,1.95
2024-05-09T16:18:25.857Z,2.40
2024-05-09T16:21:12.415Z,2.30
2024-05-09T16:24:02.184Z,2.10
2024-05-09T16:26:51.668Z,2.25
2024-05-09T16:29:41.211Z,2.08
2024-05-09T16:32:27.976Z,2.25
2024-05-09T16:35:17.534Z,2.40
2024-05-09T16:38:04.477Z,2.35
2024-05-09T16:40:54.038Z,2.08
2024-05-09T16:43:43.835Z,2.13
2024-05-09T16:46:33.641Z,2.20
2024-05-09T16:49:20.272Z,2.13
2024-05-09T16:52:10.166Z,2.15
2024-05-09T16:54:57.331Z,2.63
2024-05-09T16:57:47.075Z,2.30
2024-05-09T17:00:41.735Z,2.35
2024-05-09T17:03:34.037Z,2.60
2024-05-09T17:06:20.818Z,2.50
2024-05-09T17:09:12.005Z,2.58
2024-05-09T17:12:05.094Z,2.03
2024-05-09T17:14:54.736Z,2.15
2024-05-09T17:17:47.223Z,2.53
2024-05-09T17:20:36.543Z,2.38
2024-05-09T17:23:29.283Z,3.53
2024-05-09T17:26:19.851Z,2.40
2024-05-09T17:29:12.221Z,2.67
2024-05-09T17:31:59.392Z,2.60
2024-05-09T17:34:51.175Z,2.13
2024-05-09T17:37:38.093Z,2.30
2024-05-09T17:40:32.759Z,2.25
2024-05-09T17:43:22.708Z,2.72
2024-05-09T17:46:14.899Z,2.30
2024-05-09T17:49:02.146Z,2.00
2024-05-09T17:51:57.938Z,2.55
2024-05-09T17:54:44.559Z,2.33
2024-05-09T17:57:33.687Z,2.63
2024-05-09T18:00:29.190Z,2.40
2024-05-09T18:03:26.960Z,3.10
2024-05-09T18:06:14.094Z,2.20
2024-05-09T18:09:05.857Z,2.40
2024-05-09T18:11:52.514Z,2.17
2024-05-09T18:14:42.238Z,2.20
2024-05-09T18:17:35.594Z,2.30
2024-05-09T18:20:36.050Z,2.08
2024-05-09T18:23:31.187Z,2.10
2024-05-09T18:26:20.794Z,2.10
2024-05-09T18:29:10.822Z,4.38
2024-05-09T18:31:57.426Z,2.30
2024-05-09T18:34:47.141Z,2.08
2024-05-09T18:37:33.896Z,2.13
2024-05-09T18:43:20.252Z,2.58
2024-05-09T18:46:10.874Z,3.20
2024-05-09T18:49:00.658Z,3.00
2024-05-09T18:51:47.865Z,4.65
2024-05-09T18:54:39.506Z,5.70
2024-05-09T18:57:29.135Z,6.00
2024-05-09T19:00:30.913Z,5.22
2024-05-09T19:03:24.959Z,5.30
2024-05-09T19:06:12.143Z,4.40
2024-05-09T19:09:01.615Z,3.90
2024-05-09T19:11:48.374Z,3.72
2024-05-09T19:14:37.877Z,3.55
2024-05-09T19:17:30.568Z,4.38
2024-05-09T19:20:25.270Z,5.47
2024-05-09T19:23:20.571Z,4.63
2024-05-09T19:26:08.514Z,5.65
2024-05-09T19:28:57.861Z,5.78
2024-05-09T19:31:44.698Z,5.45
2024-05-09T19:34:37.231Z,5.00
2024-05-09T19:37:23.992Z,5.53
2024-05-09T19:40:21.097Z,5.38
2024-05-09T19:43:18.027Z,5.45
2024-05-09T19:46:05.066Z,4.28
2024-05-09T19:48:54.610Z,5.00
2024-05-09T19:51:44.516Z,3.95
2024-05-09T19:54:34.272Z,5.57
2024-05-09T19:57:21.314Z,3.50
2024-05-09T20:00:17.728Z,2.60
2024-05-09T20:03:08.935Z,6.10
2024-05-09T20:05:58.661Z,6.22
2024-05-09T20:08:47.779Z,3.70
2024-05-09T20:11:38.848Z,4.25
2024-05-09T20:14:25.521Z,5.70
2024-05-09T20:17:14.899Z,3.63
2024-05-09T20:20:01.762Z,5.00
2024-05-09T20:22:51.102Z,4.57
2024-05-09T20:25:40.154Z,5.50
2024-05-09T20:28:29.381Z,5.57
2024-05-09T20:31:20.422Z,5.47
2024-05-09T20:34:10.067Z,4.30
2024-05-09T20:36:57.017Z,3.70
2024-05-09T20:39:46.251Z,3.58
2024-05-09T20:42:35.544Z,3.50
2024-05-09T20:45:24.752Z,3.25
2024-05-09T20:48:11.537Z,3.35
2024-05-09T20:51:00.992Z,3.90
2024-05-09T20:53:47.827Z,3.88
2024-05-09T20:56:37.267Z,4.05
2024-05-09T20:59:26.645Z,4.03
2024-05-09T21:02:16.026Z,3.95
2024-05-09T21:05:05.686Z,4.20
2024-05-09T21:07:52.625Z,4.55
2024-05-09T21:10:41.944Z,4.68
2024-05-09T21:13:29.007Z,4.53
2024-05-09T21:16:21.217Z,5.22
2024-05-09T21:19:08.141Z,4.53
2024-05-09T21:21:57.611Z,4.40
2024-05-09T21:24:44.335Z,4.30
2024-05-09T21:27:34.795Z,4.63
2024-05-09T21:30:31.732Z,4.32
2024-05-09T21:33:32.317Z,4.00
2024-05-09T21:36:21.690Z,4.45
2024-05-09T21:39:09.880Z,4.22
2024-05-09T21:42:01.807Z,4.10
2024-05-09T21:44:48.210Z,4.55
2024-05-09T21:47:37.659Z,5.10
2024-05-09T21:50:36.061Z,4.50
2024-05-09T21:53:29.586Z,5.20
2024-05-09T21:56:16.147Z,4.53
2024-05-09T21:59:05.367Z,5.10
2024-05-09T22:01:52.007Z,5.50
2024-05-09T22:04:41.582Z,5.65
2024-05-09T22:07:31.148Z,4.85
2024-05-09T22:10:26.238Z,5.18
2024-05-09T22:13:20.686Z,5.63
2024-05-09T22:16:08.329Z,5.55
2024-05-09T22:18:57.848Z,5.57
2024-05-09T22:21:44.842Z,6.13
2024-05-09T22:24:36.966Z,5.30
2024-05-09T22:27:23.630Z,4.40
2024-05-09T22:30:20.958Z,5.32
2024-05-09T22:33:12.095Z,5.95
2024-05-09T22:36:02.087Z,5.78
2024-05-09T22:38:48.684Z,6.22
2024-05-09T22:41:40.369Z,6.20
2024-05-09T22:44:27.275Z,5.38
2024-05-09T22:47:16.951Z,6.57
2024-05-09T22:50:04.432Z,7.10
2024-05-09T22:52:53.768Z,6.45
2024-05-09T22:55:40.221Z,6.43
2024-05-09T22:58:32.455Z,7.15
2024-05-09T23:01:19.291Z,7.38
2024-05-09T23:04:08.913Z,6.72
2024-05-09T23:06:55.702Z,6.45
2024-05-09T23:09:47.973Z,6.32
2024-05-09T23:12:34.556Z,6.70
2024-05-09T23:15:26.287Z,5.88
2024-05-09T23:18:15.845Z,6.97
2024-05-09T23:21:02.937Z,5.95
2024-05-09T23:23:51.985Z,5.85
2024-05-09T23:26:45.743Z,5.25
2024-05-09T23:29:32.747Z,5.00
2024-05-09T23:32:24.876Z,5.22
2024-05-09T23:35:11.700Z,5.88
2024-05-09T23:38:01.455Z,5.10
2024-05-09T23:40:48.193Z,5.70
2024-05-09T23:43:38.533Z,6.22
2024-05-09T23:46:26.029Z,5.30
2024-05-09T23:49:18.099Z,5.60
2024-05-09T23:52:08.389Z,5.60
2024-05-09T23:54:55.276Z,5.80
2024-05-09T23:57:44.880Z,5.20
